Private Wetterstation Wechselburg
Wetterdaten: Sonntag, 02.06.2013
Datum Zeit Temp. +2m Bodentemp. Temp.+5cm Temp. Wind Windchill X Diff Temp. Feuchte +2m Feuchte +5cm Sonnenschein Luftdruck Regen Wind Richtung Richtung Sonnenschein UV Taupunkt Windchill Windben
02.06.2013 00:00 10,9 C 21,5 C 11,5 C 11,1 C 11,1 C 0,2 C 93 % 92 % 0 % 1008,7 hPa 0,0 l/m 7,1 km/h (2 Bft) S 180 0 min 0,0 UV-I 9,8 C 11,1 C 8,4 km/h (2 Bft)
02.06.2013 00:05 10,8 C 21,5 C 11,5 C 10,9 C 10,9 C 0,1 C 93 % 92 % 0 % 1008,7 hPa 0,0 l/m 7,6 km/h (2 Bft) SW 225 0 min 0,0 UV-I 9,7 C 10,9 C 7,6 km/h (2 Bft)
02.06.2013 00:10 10,8 C 21,4 C 11,5 C 11,3 C 11,3 C 0,5 C 93 % 92 % 0 % 1008,7 hPa 0,7 l/m 6,0 km/h (2 Bft) W 270 0 min 0,0 UV-I 9,7 C 11,3 C 8,0 km/h (2 Bft)
02.06.2013 00:15 10,9 C 21,4 C 11,5 C 11,5 C 11,5 C 0,6 C 93 % 92 % 0 % 1008,8 hPa 0,0 l/m 5,3 km/h (1 Bft) W-SW 247 0 min 0,0 UV-I 9,8 C 11,5 C 4,8 km/h (1 Bft)
02.06.2013 00:20 10,8 C 21,4 C 11,4 C 11,4 C 11,4 C 0,6 C 93 % 92 % 0 % 1008,8 hPa 0,0 l/m 5,1 km/h (1 Bft) S-SO 157 0 min 0,0 UV-I 9,7 C 11,4 C 6,0 km/h (2 Bft)
02.06.2013 00:25 10,8 C 21,4 C 11,5 C 11,4 C 11,4 C 0,6 C 93 % 92 % 0 % 1008,8 hPa 0,0 l/m 5,0 km/h (1 Bft) W 270 0 min 0,0 UV-I 9,7 C 11,4 C 13,2 km/h (3 Bft)
02.06.2013 00:30 10,7 C 21,4 C 11,5 C 11,5 C 11,5 C 0,8 C 93 % 92 % 0 % 1008,8 hPa 0,0 l/m 4,2 km/h (1 Bft) O-SO 112 0 min 0,0 UV-I 9,6 C 11,5 C 5,8 km/h (2 Bft)
02.06.2013 00:35 10,7 C 21,4 C 11,5 C 11,4 C 11,4 C 0,7 C 93 % 92 % 0 % 1009,1 hPa 0,0 l/m 4,7 km/h (1 Bft) SW 225 0 min 0,0 UV-I 9,6 C 11,4 C 2,1 km/h (1 Bft)
02.06.2013 00:41 10,7 C 21,4 C 11,4 C 11,4 C 11,4 C 0,7 C 93 % 92 % 0 % 1009,1 hPa 0,0 l/m 4,7 km/h (1 Bft) N 0 0 min 0,0 UV-I 9,6 C 11,4 C 14,2 km/h (3 Bft)
02.06.2013 01:00 10,7 C 21,3 C 11,3 C 11,2 C 11,2 C 0,5 C 93 % 92 % 0 % 1009,2 hPa 0,0 l/m 5,3 km/h (1 Bft) N-NO 22 0 min 0,0 UV-I 9,6 C 11,2 C 16,3 km/h (3 Bft)
02.06.2013 01:05 10,6 C 21,3 C 11,3 C 11,3 C 11,3 C 0,7 C 93 % 92 % 0 % 1009,2 hPa 0,0 l/m 5,0 km/h (1 Bft) W 270 0 min 0,0 UV-I 9,5 C 11,3 C 7,9 km/h (2 Bft)
02.06.2013 01:10 10,6 C 21,3 C 11,3 C 11,4 C 11,4 C 0,8 C 93 % 92 % 0 % 1009,2 hPa 0,0 l/m 3,9 km/h (1 Bft) S 180 0 min 0,0 UV-I 9,5 C 11,4 C 9,5 km/h (2 Bft)
02.06.2013 01:15 10,6 C 21,3 C 11,2 C 11,4 C 11,4 C 0,8 C 93 % 92 % 0 % 1009,3 hPa 0,0 l/m 4,0 km/h (1 Bft) O-NO 67 0 min 0,0 UV-I 9,5 C 11,4 C 9,0 km/h (2 Bft)
02.06.2013 01:20 10,7 C 21,3 C 11,2 C 11,4 C 11,4 C 0,7 C 93 % 92 % 0 % 1009,3 hPa 0,7 l/m 4,5 km/h (1 Bft) W 270 0 min 0,0 UV-I 9,6 C 11,4 C 19,8 km/h (3 Bft)
02.06.2013 01:25 10,6 C 21,3 C 11,2 C 11,3 C 11,3 C 0,7 C 93 % 92 % 0 % 1009,3 hPa 0,0 l/m 4,3 km/h (1 Bft) N-NO 22 0 min 0,0 UV-I 9,5 C 11,3 C 6,4 km/h (2 Bft)
02.06.2013 01:30 10,5 C 21,2 C 11,2 C 11,2 C 11,2 C 0,7 C 93 % 92 % 0 % 1009,3 hPa 0,0 l/m 2,9 km/h (1 Bft) W-SW 247 0 min 0,0 UV-I 9,4 C 11,2 C 2,1 km/h (1 Bft)
02.06.2013 01:35 10,5 C 21,2 C 11,2 C 11,2 C 11,2 C 0,7 C 93 % 92 % 0 % 1009,4 hPa 0,0 l/m 3,7 km/h (1 Bft) SW 225 0 min 0,0 UV-I 9,4 C 11,2 C 6,8 km/h (2 Bft)
02.06.2013 01:40 10,5 C 21,2 C 11,1 C 11,2 C 11,2 C 0,7 C 93 % 92 % 0 % 1009,4 hPa 0,0 l/m 4,0 km/h (1 Bft) W 270 0 min 0,0 UV-I 9,4 C 11,2 C 2,7 km/h (1 Bft)
02.06.2013 01:45 10,4 C 21,2 C 11,1 C 11,2 C 11,2 C 0,8 C 93 % 92 % 0 % 1009,4 hPa 0,0 l/m 4,2 km/h (1 Bft) O-SO 112 0 min 0,0 UV-I 9,3 C 11,2 C 6,4 km/h (2 Bft)
02.06.2013 01:50 10,4 C 21,2 C 11,1 C 11,2 C 11,2 C 0,8 C 93 % 92 % 0 % 1009,4 hPa 0,0 l/m 4,5 km/h (1 Bft) W-SW 247 0 min 0,0 UV-I 9,3 C 11,2 C 2,4 km/h (1 Bft)
02.06.2013 01:55 10,5 C 21,2 C 11,1 C 11,2 C 11,2 C 0,7 C 93 % 92 % 0 % 1009,4 hPa 0,0 l/m 4,7 km/h (1 Bft) S-SO 157 0 min 0,0 UV-I 9,4 C 11,2 C 4,8 km/h (1 Bft)
02.06.2013 02:00 10,4 C 21,2 C 11,1 C 11,1 C 11,1 C 0,7 C 93 % 92 % 0 % 1009,4 hPa 0,0 l/m 4,5 km/h (1 Bft) NW 315 0 min 0,0 UV-I 9,3 C 11,1 C 13,4 km/h (3 Bft)
02.06.2013 02:05 10,3 C 21,2 C 11,1 C 11,1 C 11,1 C 0,8 C 93 % 92 % 0 % 1009,4 hPa 0,0 l/m 4,8 km/h (1 Bft) S-SO 157 0 min 0,0 UV-I 9,2 C 11,1 C 3,1 km/h (1 Bft)
02.06.2013 02:10 10,3 C 21,2 C 10,9 C 10,7 C 10,7 C 0,4 C 93 % 92 % 0 % 1009,4 hPa 0,0 l/m 5,6 km/h (1 Bft) S-SO 157 0 min 0,0 UV-I 9,2 C 10,7 C 6,6 km/h (2 Bft)
02.06.2013 02:15 10,2 C 21,1 C 10,9 C 10,8 C 10,8 C 0,6 C 93 % 92 % 0 % 1009,3 hPa 0,0 l/m 5,1 km/h (1 Bft) NW 315 0 min 0,0 UV-I 9,1 C 10,8 C 8,0 km/h (2 Bft)
02.06.2013 02:20 10,3 C 21,1 C 10,9 C 10,9 C 10,9 C 0,6 C 93 % 92 % 0 % 1009,3 hPa 0,0 l/m 4,7 km/h (1 Bft) W-SW 247 0 min 0,0 UV-I 9,2 C 10,9 C 5,8 km/h (2 Bft)
02.06.2013 02:25 10,3 C 21,1 C 10,9 C 11,0 C 11,0 C 0,7 C 93 % 92 % 0 % 1009,3 hPa 0,0 l/m 4,2 km/h (1 Bft) S-SO 157 0 min 0,0 UV-I 9,2 C 11,0 C 0,0 km/h (0 Bft)
02.06.2013 02:30 10,2 C 21,1 C 10,8 C 10,8 C 10,8 C 0,6 C 93 % 92 % 0 % 1009,3 hPa 0,0 l/m 4,8 km/h (1 Bft) W-SW 247 0 min 0,0 UV-I 9,1 C 10,8 C 6,4 km/h (2 Bft)
02.06.2013 02:35 10,1 C 21,1 C 10,8 C 10,8 C 10,8 C 0,7 C 93 % 92 % 0 % 1009,4 hPa 0,0 l/m 4,8 km/h (1 Bft) S 180 0 min 0,0 UV-I 9,0 C 10,8 C 4,7 km/h (1 Bft)
02.06.2013 02:40 10,1 C 21,1 C 10,8 C 10,6 C 10,6 C 0,5 C 93 % 92 % 0 % 1009,4 hPa 0,0 l/m 5,3 km/h (1 Bft) W-SW 247 0 min 0,0 UV-I 9,0 C 10,6 C 17,7 km/h (3 Bft)
02.06.2013 02:45 10,0 C 21,1 C 10,8 C 10,3 C 10,3 C 0,3 C 93 % 92 % 0 % 1009,4 hPa 0,0 l/m 6,1 km/h (2 Bft) W-SW 247 0 min 0,0 UV-I 8,9 C 10,3 C 5,3 km/h (1 Bft)
02.06.2013 02:50 10,1 C 21,1 C 10,7 C 10,4 C 10,4 C 0,3 C 93 % 92 % 0 % 1009,4 hPa 0,0 l/m 5,8 km/h (2 Bft) S 180 0 min 0,0 UV-I 9,0 C 10,4 C 3,7 km/h (1 Bft)
02.06.2013 02:55 10,0 C 21,1 C 10,7 C 10,7 C 10,7 C 0,7 C 93 % 92 % 0 % 1009,7 hPa 0,0 l/m 4,8 km/h (1 Bft) S 180 0 min 0,0 UV-I 8,9 C 10,7 C 5,0 km/h (1 Bft)
02.06.2013 03:00 9,9 C 21,1 C 10,6 C 10,7 C 10,7 C 0,8 C 93 % 92 % 0 % 1009,7 hPa 0,0 l/m 4,5 km/h (1 Bft) SO 135 0 min 0,0 UV-I 8,8 C 10,7 C 6,3 km/h (2 Bft)
02.06.2013 03:05 9,9 C 21,1 C 10,7 C 10,6 C 10,6 C 0,7 C 93 % 92 % 0 % 1009,7 hPa 0,0 l/m 4,8 km/h (1 Bft) N-NW 337 0 min 0,0 UV-I 8,8 C 10,6 C 6,3 km/h (2 Bft)
02.06.2013 03:10 9,8 C 21,1 C 10,5 C 10,2 C 10,2 C 0,4 C 93 % 92 % 0 % 1009,7 hPa 0,0 l/m 6,0 km/h (2 Bft) W-NW 292 0 min 0,0 UV-I 8,7 C 10,2 C 5,8 km/h (2 Bft)
02.06.2013 03:15 9,7 C 21,1 C 10,5 C 10,1 C 10,1 C 0,4 C 93 % 92 % 0 % 1009,9 hPa 0,0 l/m 5,6 km/h (1 Bft) S-SW 202 0 min 0,0 UV-I 8,6 C 10,1 C 5,1 km/h (1 Bft)
02.06.2013 03:20 9,7 C 21,1 C 10,5 C 10,2 C 10,2 C 0,5 C 93 % 92 % 0 % 1009,9 hPa 0,0 l/m 5,0 km/h (1 Bft) S-SW 202 0 min 0,0 UV-I 8,6 C 10,2 C 9,5 km/h (2 Bft)
02.06.2013 03:25 9,7 C 21,1 C 10,4 C 9,9 C 9,9 C 0,2 C 93 % 92 % 0 % 1009,9 hPa 0,0 l/m 6,0 km/h (2 Bft) S-SO 157 0 min 0,0 UV-I 8,6 C 9,4 C 6,4 km/h (2 Bft)
02.06.2013 03:30 9,5 C 21,0 C 10,2 C 9,5 C 9,4 C 0,0 C 92 % 92 % 0 % 1009,9 hPa 0,7 l/m 7,4 km/h (2 Bft) S-SO 157 0 min 0,0 UV-I 8,3 C 8,4 C 16,6 km/h (3 Bft)
02.06.2013 03:35 9,4 C 21,0 C 10,3 C 9,5 C 9,5 C 0,1 C 92 % 92 % 0 % 1009,8 hPa 0,0 l/m 6,8 km/h (2 Bft) NW 315 0 min 0,0 UV-I 8,2 C 8,7 C 6,9 km/h (2 Bft)
02.06.2013 03:40 9,5 C 21,0 C 10,3 C 9,8 C 9,8 C 0,3 C 92 % 92 % 0 % 1009,8 hPa 0,0 l/m 5,5 km/h (1 Bft) S 180 0 min 0,0 UV-I 8,3 C 9,4 C 3,9 km/h (1 Bft)
02.06.2013 03:45 9,5 C 21,0 C 10,1 C 10,1 C 10,1 C 0,6 C 92 % 92 % 0 % 1009,8 hPa 0,0 l/m 4,8 km/h (1 Bft) W-SW 247 0 min 0,0 UV-I 8,3 C 10,1 C 5,0 km/h (1 Bft)
02.06.2013 03:50 9,3 C 21,0 C 10,1 C 9,8 C 9,8 C 0,5 C 92 % 92 % 0 % 1009,8 hPa 0,0 l/m 5,5 km/h (1 Bft) W-SW 247 0 min 0,0 UV-I 8,1 C 9,4 C 7,9 km/h (2 Bft)
02.06.2013 03:55 9,3 C 21,0 C 10,1 C 9,6 C 9,6 C 0,3 C 92 % 92 % 0 % 1009,8 hPa 0,0 l/m 6,0 km/h (2 Bft) S 180 0 min 0,0 UV-I 8,1 C 9,0 C 12,7 km/h (3 Bft)
02.06.2013 04:00 9,3 C 21,0 C 10,0 C 9,6 C 9,6 C 0,3 C 92 % 92 % 0 % 1009,8 hPa 0,0 l/m 6,0 km/h (2 Bft) SW 225 0 min 0,0 UV-I 8,1 C 9,0 C 9,5 km/h (2 Bft)
02.06.2013 04:05 9,2 C 21,0 C 10,0 C 9,6 C 9,6 C 0,4 C 92 % 92 % 0 % 1009,8 hPa 0,0 l/m 6,1 km/h (2 Bft) O 90 0 min 0,0 UV-I 8,0 C 9,0 C 11,4 km/h (2 Bft)
02.06.2013 04:10 9,3 C 21,0 C 10,0 C 9,3 C 9,3 C 0,0 C 92 % 92 % 0 % 1009,8 hPa 0,0 l/m 6,4 km/h (2 Bft) S-SO 157 0 min 0,0 UV-I 8,1 C 8,6 C 9,8 km/h (2 Bft)
02.06.2013 04:15 9,3 C 21,0 C 10,0 C 9,3 C 9,3 C 0,0 C 92 % 92 % 0 % 1009,9 hPa 0,0 l/m 6,6 km/h (2 Bft) NW 315 0 min 0,0 UV-I 8,1 C 8,5 C 8,4 km/h (2 Bft)
02.06.2013 04:20 9,2 C 21,0 C 9,9 C 9,5 C 9,5 C 0,3 C 92 % 92 % 0 % 1009,9 hPa 0,0 l/m 5,8 km/h (2 Bft) W-SW 247 0 min 0,0 UV-I 8,0 C 9,0 C 5,0 km/h (1 Bft)
02.06.2013 04:25 9,1 C 21,0 C 9,9 C 9,4 C 9,4 C 0,3 C 92 % 92 % 0 % 1009,9 hPa 0,0 l/m 6,0 km/h (2 Bft) S 180 0 min 0,0 UV-I 7,9 C 8,8 C 6,8 km/h (2 Bft)
02.06.2013 04:30 9,2 C 21,0 C 9,9 C 9,5 C 9,5 C 0,3 C 92 % 92 % 0 % 1009,9 hPa 0,0 l/m 5,8 km/h (2 Bft) SW 225 0 min 0,0 UV-I 8,0 C 9,0 C 11,4 km/h (2 Bft)
02.06.2013 04:35 9,1 C 20,9 C 9,9 C 9,6 C 9,6 C 0,5 C 92 % 93 % 0 % 1009,8 hPa 0,0 l/m 5,5 km/h (1 Bft) O-SO 112 0 min 0,0 UV-I 7,9 C 9,2 C 6,9 km/h (2 Bft)
02.06.2013 04:40 9,1 C 20,9 C 9,9 C 9,4 C 9,4 C 0,3 C 92 % 93 % 0 % 1009,8 hPa 0,0 l/m 5,6 km/h (1 Bft) W-NW 292 0 min 0,0 UV-I 7,9 C 8,9 C 2,4 km/h (1 Bft)
02.06.2013 04:45 9,1 C 20,9 C 9,9 C 9,4 C 9,4 C 0,3 C 92 % 93 % 0 % 1009,8 hPa 0,0 l/m 5,6 km/h (1 Bft) NW 315 0 min 0,0 UV-I 7,9 C 8,9 C 9,2 km/h (2 Bft)
02.06.2013 04:50 9,0 C 20,9 C 9,8 C 9,6 C 9,6 C 0,6 C 92 % 93 % 0 % 1009,8 hPa 0,0 l/m 5,1 km/h (1 Bft) SW 225 0 min 0,0 UV-I 7,8 C 9,3 C 7,4 km/h (2 Bft)
02.06.2013 04:55 9,1 C 20,9 C 9,9 C 9,7 C 9,7 C 0,6 C 92 % 93 % 0 % 1010,0 hPa 0,7 l/m 4,8 km/h (1 Bft) SW 225 0 min 0,0 UV-I 7,9 C 9,5 C 3,5 km/h (1 Bft)
02.06.2013 05:00 9,1 C 20,9 C 9,9 C 9,7 C 9,7 C 0,6 C 93 % 93 % 0 % 1010,0 hPa 0,0 l/m 4,7 km/h (1 Bft) NW 315 0 min 0,0 UV-I 8,0 C 9,5 C 9,2 km/h (2 Bft)
02.06.2013 05:05 9,0 C 20,9 C 9,8 C 9,3 C 9,3 C 0,3 C 93 % 93 % 0 % 1010,0 hPa 0,0 l/m 5,6 km/h (1 Bft) W-SW 247 0 min 0,0 UV-I 7,9 C 8,8 C 7,1 km/h (2 Bft)
02.06.2013 05:10 9,0 C 20,9 C 9,7 C 9,6 C 9,6 C 0,6 C 93 % 93 % 0 % 1010,0 hPa 0,0 l/m 5,1 km/h (1 Bft) S 180 0 min 0,0 UV-I 7,9 C 9,3 C 2,6 km/h (1 Bft)
02.06.2013 05:15 9,0 C 20,9 C 9,7 C 9,8 C 9,8 C 0,8 C 93 % 93 % 21 % 1010,2 hPa 0,0 l/m 3,7 km/h (1 Bft) W-NW 292 5 min 0,0 UV-I 7,9 C 9,8 C 7,4 km/h (2 Bft)
02.06.2013 05:20 8,9 C 20,9 C 9,7 C 9,8 C 9,8 C 0,9 C 93 % 93 % 24 % 1010,2 hPa 0,0 l/m 4,0 km/h (1 Bft) S-SO 157 5 min 0,0 UV-I 7,8 C 9,8 C 11,6 km/h (2 Bft)
02.06.2013 05:25 8,9 C 20,9 C 9,7 C 9,6 C 9,6 C 0,7 C 93 % 93 % 18 % 1010,2 hPa 0,0 l/m 4,8 km/h (1 Bft) N 360 5 min 0,0 UV-I 7,8 C 9,4 C 4,3 km/h (1 Bft)
02.06.2013 05:30 8,8 C 20,9 C 9,7 C 9,2 C 9,2 C 0,4 C 93 % 93 % 11 % 1010,2 hPa 0,7 l/m 5,8 km/h (2 Bft) S 180 0 min 0,0 UV-I 7,7 C 8,6 C 5,8 km/h (2 Bft)
02.06.2013 05:35 8,8 C 20,9 C 9,6 C 9,2 C 9,2 C 0,4 C 93 % 92 % 11 % 1010,0 hPa 0,0 l/m 5,6 km/h (1 Bft) S 180 0 min 0,0 UV-I 7,7 C 8,7 C 11,1 km/h (2 Bft)
02.06.2013 05:40 8,8 C 20,9 C 9,6 C 9,0 C 9,0 C 0,2 C 93 % 92 % 5 % 1010,0 hPa 0,0 l/m 6,4 km/h (2 Bft) S-SW 202 0 min 0,0 UV-I 7,7 C 8,2 C 11,3 km/h (2 Bft)
02.06.2013 05:45 8,8 C 20,9 C 9,5 C 8,8 C 8,8 C 0,0 C 93 % 92 % 0 % 1010,0 hPa 0,0 l/m 6,6 km/h (2 Bft) S-SW 202 0 min 0,0 UV-I 7,7 C 7,9 C 6,3 km/h (2 Bft)
02.06.2013 05:50 8,7 C 20,9 C 9,5 C 9,0 C 9,0 C 0,3 C 93 % 92 % 8 % 1010,0 hPa 0,0 l/m 5,6 km/h (1 Bft) SO 135 0 min 0,0 UV-I 7,6 C 8,4 C 6,1 km/h (2 Bft)
02.06.2013 05:55 8,7 C 20,9 C 9,5 C 9,2 C 9,2 C 0,5 C 93 % 92 % 13 % 1010,9 hPa 0,0 l/m 5,0 km/h (1 Bft) S-SO 157 0 min 0,0 UV-I 7,6 C 8,8 C 4,7 km/h (1 Bft)
02.06.2013 06:00 8,6 C 20,8 C 9,4 C 8,9 C 8,9 C 0,3 C 93 % 92 % 8 % 1010,9 hPa 0,0 l/m 5,8 km/h (2 Bft) W-SW 247 0 min 0,0 UV-I 7,5 C 8,3 C 9,2 km/h (2 Bft)
02.06.2013 06:05 8,7 C 20,8 C 9,5 C 8,8 C 8,8 C 0,1 C 93 % 92 % 3 % 1010,9 hPa 0,0 l/m 6,1 km/h (2 Bft) NO 45 0 min 0,0 UV-I 7,6 C 8,1 C 5,3 km/h (1 Bft)
02.06.2013 06:10 8,7 C 20,8 C 9,4 C 8,8 C 8,8 C 0,1 C 93 % 92 % 3 % 1010,9 hPa 0,0 l/m 6,0 km/h (2 Bft) S-SW 202 0 min 0,0 UV-I 7,6 C 8,1 C 5,0 km/h (1 Bft)
02.06.2013 06:15 8,5 C 20,8 C 9,4 C 8,6 C 8,6 C 0,1 C 93 % 92 % 3 % 1010,8 hPa 0,0 l/m 6,4 km/h (2 Bft) W 270 0 min 0,0 UV-I 7,4 C 7,8 C 14,6 km/h (3 Bft)
02.06.2013 06:20 8,5 C 20,9 C 9,3 C 8,7 C 8,7 C 0,2 C 93 % 92 % 5 % 1010,8 hPa 0,0 l/m 6,1 km/h (2 Bft) S 180 0 min 0,0 UV-I 7,4 C 7,9 C 20,6 km/h (4 Bft)
02.06.2013 06:25 8,5 C 20,9 C 9,3 C 8,9 C 8,9 C 0,4 C 93 % 92 % 11 % 1010,8 hPa 0,0 l/m 5,3 km/h (1 Bft) NW 315 0 min 0,0 UV-I 7,4 C 8,4 C 17,1 km/h (3 Bft)
02.06.2013 06:30 8,5 C 20,9 C 9,2 C 8,7 C 8,7 C 0,2 C 93 % 92 % 5 % 1010,8 hPa 0,0 l/m 6,1 km/h (2 Bft) S-SW 202 0 min 0,0 UV-I 7,4 C 7,9 C 6,9 km/h (2 Bft)
02.06.2013 06:35 8,4 C 20,9 C 9,2 C 8,6 C 8,6 C 0,2 C 93 % 92 % 5 % 1011,1 hPa 0,0 l/m 6,0 km/h (2 Bft) S-SO 157 0 min 0,0 UV-I 7,3 C 7,9 C 6,9 km/h (2 Bft)
02.06.2013 06:41 8,4 C 20,9 C 9,2 C 8,8 C 8,8 C 0,4 C 93 % 92 % 11 % 1011,1 hPa 0,0 l/m 5,3 km/h (1 Bft) N 0 0 min 0,0 UV-I 7,3 C 8,3 C 7,9 km/h (2 Bft)
02.06.2013 07:00 8,3 C 20,9 C 9,2 C 8,9 C 8,9 C 0,6 C 92 % 92 % 16 % 1011,2 hPa 0,7 l/m 4,8 km/h (1 Bft) NW 315 0 min 0,0 UV-I 7,1 C 8,6 C 25,7 km/h (4 Bft)
02.06.2013 07:05 8,3 C 20,9 C 9,2 C 8,8 C 8,8 C 0,5 C 92 % 92 % 13 % 1011,2 hPa 0,0 l/m 4,7 km/h (1 Bft) S 180 0 min 0,0 UV-I 7,1 C 8,5 C 18,5 km/h (3 Bft)
02.06.2013 07:10 8,2 C 20,9 C 9,1 C 8,7 C 8,7 C 0,5 C 93 % 92 % 13 % 1011,2 hPa 0,7 l/m 5,1 km/h (1 Bft) N 360 0 min 0,0 UV-I 7,1 C 8,2 C 3,7 km/h (1 Bft)
02.06.2013 07:15 8,3 C 20,8 C 9,1 C 8,6 C 8,6 C 0,3 C 93 % 92 % 8 % 1011,4 hPa 0,0 l/m 5,5 km/h (1 Bft) NW 315 0 min 0,0 UV-I 7,2 C 8,0 C 3,9 km/h (1 Bft)
02.06.2013 07:20 8,3 C 20,8 C 9,0 C 8,9 C 8,9 C 0,6 C 92 % 92 % 16 % 1011,4 hPa 0,0 l/m 4,5 km/h (1 Bft) NW 315 0 min 0,0 UV-I 7,1 C 8,9 C 3,7 km/h (1 Bft)
02.06.2013 07:25 8,2 C 20,8 C 9,1 C 8,7 C 8,7 C 0,5 C 93 % 92 % 13 % 1011,4 hPa 0,0 l/m 5,0 km/h (1 Bft) W 270 0 min 0,0 UV-I 7,1 C 8,3 C 10,1 km/h (2 Bft)
02.06.2013 07:30 8,1 C 20,8 C 9,1 C 8,6 C 8,6 C 0,5 C 93 % 92 % 13 % 1011,4 hPa 0,0 l/m 5,0 km/h (1 Bft) NW 315 0 min 0,0 UV-I 7,0 C 8,2 C 3,4 km/h (1 Bft)
02.06.2013 07:35 8,1 C 20,8 C 9,1 C 8,8 C 8,8 C 0,7 C 93 % 92 % 18 % 1011,9 hPa 0,0 l/m 4,3 km/h (1 Bft) W 270 0 min 0,0 UV-I 7,0 C 8,8 C 5,3 km/h (1 Bft)
02.06.2013 07:40 8,1 C 20,8 C 8,9 C 8,9 C 8,9 C 0,8 C 93 % 92 % 21 % 1011,9 hPa 0,0 l/m 4,2 km/h (1 Bft) NW 315 0 min 0,0 UV-I 7,0 C 8,9 C 2,9 km/h (1 Bft)
02.06.2013 07:45 8,1 C 20,8 C 9,0 C 8,8 C 8,8 C 0,7 C 93 % 92 % 18 % 1011,9 hPa 0,7 l/m 4,2 km/h (1 Bft) NW 315 0 min 0,0 UV-I 7,0 C 8,8 C 0,0 km/h (0 Bft)
02.06.2013 07:50 8,0 C 20,8 C 8,9 C 8,9 C 8,9 C 0,9 C 92 % 92 % 24 % 1011,9 hPa 0,0 l/m 3,7 km/h (1 Bft) W-SW 247 0 min 0,0 UV-I 6,8 C 8,9 C 11,4 km/h (2 Bft)
02.06.2013 07:55 8,0 C 20,8 C 8,9 C 8,9 C 8,9 C 0,9 C 93 % 92 % 24 % 1011,7 hPa 0,0 l/m 4,0 km/h (1 Bft) NW 315 0 min 0,0 UV-I 6,9 C 8,9 C 2,6 km/h (1 Bft)
02.06.2013 08:00 8,1 C 20,8 C 8,9 C 8,8 C 8,8 C 0,7 C 93 % 92 % 18 % 1011,7 hPa 0,0 l/m 4,2 km/h (1 Bft) NW 315 0 min 0,0 UV-I 7,0 C 8,8 C 6,4 km/h (2 Bft)
02.06.2013 08:05 7,9 C 20,8 C 8,8 C 8,8 C 8,8 C 0,9 C 93 % 92 % 24 % 1011,7 hPa 0,0 l/m 4,2 km/h (1 Bft) SW 225 0 min 0,0 UV-I 6,8 C 8,8 C 6,0 km/h (2 Bft)
02.06.2013 08:10 7,9 C 20,7 C 8,8 C 8,4 C 8,4 C 0,5 C 93 % 92 % 13 % 1011,7 hPa 0,0 l/m 5,0 km/h (1 Bft) S-SO 157 0 min 0,0 UV-I 6,8 C 7,9 C 6,6 km/h (2 Bft)
02.06.2013 08:15 8,0 C 20,7 C 8,8 C 8,8 C 8,8 C 0,8 C 93 % 92 % 21 % 1011,8 hPa 0,0 l/m 3,7 km/h (1 Bft) O-SO 112 0 min 0,0 UV-I 6,9 C 8,8 C 3,4 km/h (1 Bft)
02.06.2013 08:20 7,9 C 20,7 C 8,7 C 8,8 C 8,8 C 0,9 C 93 % 92 % 24 % 1011,8 hPa 0,0 l/m 3,5 km/h (1 Bft) S 180 0 min 0,0 UV-I 6,8 C 8,8 C 9,0 km/h (2 Bft)
02.06.2013 08:25 7,9 C 20,7 C 8,7 C 8,7 C 8,7 C 0,8 C 93 % 92 % 21 % 1011,8 hPa 0,0 l/m 4,2 km/h (1 Bft) S-SO 157 0 min 0,0 UV-I 6,8 C 8,7 C 3,2 km/h (1 Bft)
02.06.2013 08:30 7,8 C 20,7 C 8,7 C 8,7 C 8,7 C 0,9 C 93 % 92 % 24 % 1011,8 hPa 0,0 l/m 3,9 km/h (1 Bft) N-NO 22 0 min 0,0 UV-I 6,7 C 8,7 C 0,0 km/h (0 Bft)
02.06.2013 08:35 7,8 C 20,7 C 8,7 C 8,7 C 8,7 C 0,9 C 93 % 92 % 24 % 1012,4 hPa 0,0 l/m 3,7 km/h (1 Bft) SW 225 0 min 0,0 UV-I 6,7 C 8,7 C 6,8 km/h (2 Bft)
02.06.2013 08:40 7,9 C 20,7 C 8,7 C 8,4 C 8,4 C 0,5 C 93 % 92 % 13 % 1012,4 hPa 0,0 l/m 4,7 km/h (1 Bft) SW 225 0 min 0,0 UV-I 6,8 C 8,0 C 4,5 km/h (1 Bft)
02.06.2013 08:45 7,9 C 20,7 C 8,7 C 8,2 C 8,2 C 0,3 C 93 % 92 % 8 % 1012,4 hPa 0,0 l/m 5,1 km/h (1 Bft) O 90 0 min 0,0 UV-I 6,8 C 7,7 C 6,4 km/h (2 Bft)
02.06.2013 08:50 7,9 C 20,7 C 8,7 C 8,2 C 8,2 C 0,3 C 93 % 93 % 8 % 1012,4 hPa 0,0 l/m 5,1 km/h (1 Bft) S 180 0 min 0,0 UV-I 6,8 C 7,7 C 14,2 km/h (3 Bft)
02.06.2013 08:55 7,9 C 20,7 C 8,7 C 8,3 C 8,3 C 0,4 C 93 % 92 % 11 % 1012,6 hPa 0,0 l/m 4,8 km/h (1 Bft) W-SW 247 0 min 0,0 UV-I 6,8 C 7,9 C 8,9 km/h (2 Bft)
02.06.2013 09:00 7,9 C 20,7 C 8,7 C 8,5 C 8,5 C 0,6 C 93 % 92 % 16 % 1012,6 hPa 0,0 l/m 4,3 km/h (1 Bft) S-SO 157 0 min 0,0 UV-I 6,8 C 8,5 C 7,1 km/h (2 Bft)
02.06.2013 09:05 7,9 C 20,7 C 8,7 C 8,3 C 8,3 C 0,4 C 93 % 92 % 11 % 1012,6 hPa 0,0 l/m 5,0 km/h (1 Bft) S 180 0 min 0,0 UV-I 6,8 C 7,8 C 2,7 km/h (1 Bft)
02.06.2013 09:10 7,9 C 20,6 C 8,7 C 8,7 C 8,7 C 0,8 C 93 % 93 % 21 % 1012,6 hPa 0,0 l/m 4,0 km/h (1 Bft) N-NO 22 0 min 0,0 UV-I 6,8 C 8,7 C 5,6 km/h (1 Bft)
02.06.2013 09:15 7,9 C 20,6 C 8,7 C 8,3 C 8,3 C 0,4 C 93 % 93 % 11 % 1012,7 hPa 0,0 l/m 4,8 km/h (1 Bft) NW 315 0 min 0,0 UV-I 6,8 C 7,9 C 10,0 km/h (2 Bft)
02.06.2013 09:20 7,9 C 20,6 C 8,6 C 7,9 C 7,9 C 0,0 C 93 % 92 % 0 % 1012,7 hPa 0,0 l/m 6,1 km/h (2 Bft) S 180 0 min 0,0 UV-I 6,8 C 7,0 C 9,0 km/h (2 Bft)
02.06.2013 09:25 7,9 C 20,6 C 8,7 C 8,1 C 8,1 C 0,2 C 93 % 92 % 5 % 1012,7 hPa 0,0 l/m 5,8 km/h (2 Bft) W-SW 247 0 min 0,0 UV-I 6,8 C 7,3 C 11,4 km/h (2 Bft)
02.06.2013 09:30 7,9 C 20,6 C 8,7 C 7,9 C 7,9 C 0,0 C 93 % 92 % 0 % 1012,7 hPa 0,0 l/m 6,1 km/h (2 Bft) W-SW 247 0 min 0,0 UV-I 6,8 C 7,0 C 10,1 km/h (2 Bft)
02.06.2013 09:35 7,9 C 20,6 C 8,6 C 8,2 C 8,2 C 0,3 C 93 % 93 % 8 % 1013,0 hPa 0,0 l/m 5,1 km/h (1 Bft) S-SO 157 0 min 0,0 UV-I 6,8 C 7,7 C 6,8 km/h (2 Bft)
02.06.2013 09:40 7,8 C 20,6 C 8,7 C 8,2 C 8,2 C 0,4 C 93 % 92 % 11 % 1013,0 hPa 0,0 l/m 5,3 km/h (1 Bft) S 180 0 min 0,0 UV-I 6,7 C 7,6 C 4,3 km/h (1 Bft)
02.06.2013 09:45 7,9 C 20,6 C 8,6 C 8,3 C 8,3 C 0,4 C 93 % 93 % 11 % 1013,0 hPa 0,0 l/m 5,0 km/h (1 Bft) NW 315 0 min 0,0 UV-I 6,8 C 7,8 C 6,4 km/h (2 Bft)
02.06.2013 09:50 7,8 C 20,6 C 8,7 C 8,2 C 8,2 C 0,4 C 93 % 92 % 11 % 1013,0 hPa 0,0 l/m 5,1 km/h (1 Bft) SW 225 0 min 0,0 UV-I 6,7 C 7,7 C 6,1 km/h (2 Bft)
02.06.2013 09:55 7,9 C 20,6 C 8,7 C 8,4 C 8,4 C 0,5 C 93 % 93 % 13 % 1013,4 hPa 0,0 l/m 4,5 km/h (1 Bft) N-NW 337 0 min 0,0 UV-I 6,8 C 8,4 C 3,9 km/h (1 Bft)
02.06.2013 10:00 7,8 C 20,6 C 8,7 C 8,5 C 8,5 C 0,7 C 93 % 92 % 18 % 1013,4 hPa 0,0 l/m 4,3 km/h (1 Bft) W-SW 247 0 min 0,0 UV-I 6,7 C 8,5 C 5,5 km/h (1 Bft)
02.06.2013 10:05 7,9 C 20,6 C 8,7 C 8,7 C 8,7 C 0,8 C 93 % 93 % 21 % 1013,4 hPa 0,0 l/m 3,9 km/h (1 Bft) NW 315 0 min 0,0 UV-I 6,8 C 8,7 C 2,1 km/h (1 Bft)
02.06.2013 10:10 7,8 C 20,6 C 8,7 C 8,7 C 8,7 C 0,9 C 93 % 93 % 24 % 1013,4 hPa 0,0 l/m 3,5 km/h (1 Bft) S 180 0 min 0,0 UV-I 6,7 C 8,7 C 3,5 km/h (1 Bft)
02.06.2013 10:15 7,8 C 20,5 C 8,7 C 8,7 C 8,7 C 0,9 C 93 % 93 % 24 % 1013,4 hPa 0,7 l/m 4,0 km/h (1 Bft) W-SW 247 0 min 0,0 UV-I 6,7 C 8,7 C 7,9 km/h (2 Bft)
02.06.2013 10:20 7,7 C 20,5 C 8,7 C 8,6 C 8,6 C 0,9 C 93 % 92 % 24 % 1013,4 hPa 0,0 l/m 4,2 km/h (1 Bft) SW 225 0 min 0,0 UV-I 6,6 C 8,6 C 6,4 km/h (2 Bft)
02.06.2013 10:25 7,7 C 20,5 C 8,7 C 8,3 C 8,3 C 0,6 C 93 % 92 % 16 % 1013,4 hPa 0,0 l/m 4,8 km/h (1 Bft) S-SW 202 0 min 0,0 UV-I 6,6 C 7,9 C 7,4 km/h (2 Bft)
02.06.2013 10:30 7,7 C 20,5 C 8,6 C 8,6 C 8,6 C 0,9 C 93 % 93 % 24 % 1013,4 hPa 0,0 l/m 4,2 km/h (1 Bft) W-SW 247 0 min 0,0 UV-I 6,6 C 8,6 C 5,6 km/h (1 Bft)
02.06.2013 10:35 7,8 C 20,5 C 8,7 C 8,7 C 8,7 C 0,9 C 93 % 93 % 24 % 1013,6 hPa 0,0 l/m 3,9 km/h (1 Bft) SO 135 0 min 0,0 UV-I 6,7 C 8,7 C 6,4 km/h (2 Bft)
02.06.2013 10:40 7,7 C 20,5 C 8,7 C 8,2 C 8,2 C 0,5 C 93 % 93 % 13 % 1013,6 hPa 0,0 l/m 5,3 km/h (1 Bft) NW 315 0 min 0,0 UV-I 6,6 C 7,6 C 9,7 km/h (2 Bft)
02.06.2013 10:45 7,6 C 20,5 C 8,5 C 8,0 C 8,0 C 0,4 C 92 % 93 % 11 % 1013,6 hPa 0,0 l/m 5,5 km/h (1 Bft) N-NO 22 0 min 0,0 UV-I 6,4 C 7,3 C 3,5 km/h (1 Bft)
02.06.2013 10:50 7,7 C 20,5 C 8,4 C 7,8 C 7,8 C 0,1 C 92 % 93 % 3 % 1013,6 hPa 0,0 l/m 5,8 km/h (2 Bft) S-SO 157 0 min 0,0 UV-I 6,5 C 7,0 C 6,1 km/h (2 Bft)
02.06.2013 10:55 7,6 C 20,5 C 8,5 C 8,0 C 8,0 C 0,4 C 92 % 93 % 11 % 1014,1 hPa 0,0 l/m 5,1 km/h (1 Bft) S 180 0 min 0,0 UV-I 6,4 C 7,5 C 8,0 km/h (2 Bft)
02.06.2013 11:00 7,5 C 20,5 C 8,4 C 8,0 C 8,0 C 0,5 C 92 % 93 % 13 % 1014,1 hPa 0,7 l/m 4,7 km/h (1 Bft) W 270 0 min 0,0 UV-I 6,3 C 7,6 C 10,1 km/h (2 Bft)
02.06.2013 11:05 7,5 C 20,5 C 8,5 C 8,0 C 8,0 C 0,5 C 92 % 93 % 13 % 1014,1 hPa 0,0 l/m 4,8 km/h (1 Bft) SW 225 0 min 0,0 UV-I 6,3 C 7,6 C 5,3 km/h (1 Bft)
02.06.2013 11:10 7,5 C 20,4 C 8,4 C 7,9 C 7,9 C 0,4 C 92 % 93 % 11 % 1014,1 hPa 0,0 l/m 5,0 km/h (1 Bft) S 180 0 min 0,0 UV-I 6,3 C 7,4 C 6,1 km/h (2 Bft)
02.06.2013 11:15 7,5 C 20,4 C 8,4 C 8,2 C 8,2 C 0,7 C 92 % 93 % 18 % 1013,7 hPa 0,0 l/m 4,3 km/h (1 Bft) S 180 0 min 0,0 UV-I 6,3 C 8,2 C 3,9 km/h (1 Bft)
02.06.2013 11:20 7,4 C 20,4 C 8,5 C 8,4 C 8,4 C 1,0 C 92 % 93 % 26 % 1013,7 hPa 0,0 l/m 3,7 km/h (1 Bft) SW 225 0 min 0,0 UV-I 6,2 C 8,4 C 6,0 km/h (2 Bft)
02.06.2013 11:25 7,4 C 20,4 C 8,4 C 8,2 C 8,2 C 0,8 C 93 % 93 % 21 % 1013,7 hPa 0,0 l/m 4,2 km/h (1 Bft) S 180 0 min 0,0 UV-I 6,3 C 8,2 C 6,6 km/h (2 Bft)
02.06.2013 11:30 7,5 C 20,4 C 8,4 C 8,1 C 8,1 C 0,6 C 93 % 93 % 16 % 1013,7 hPa 0,0 l/m 4,8 km/h (1 Bft) W 270 0 min 0,0 UV-I 6,4 C 7,7 C 4,5 km/h (1 Bft)
02.06.2013 11:35 7,4 C 20,4 C 8,4 C 8,3 C 8,3 C 0,9 C 93 % 93 % 24 % 1013,6 hPa 0,7 l/m 4,3 km/h (1 Bft) W-SW 247 0 min 0,0 UV-I 6,3 C 8,3 C 4,0 km/h (1 Bft)
02.06.2013 11:40 7,4 C 20,4 C 8,4 C 8,2 C 8,2 C 0,8 C 93 % 93 % 21 % 1013,6 hPa 0,0 l/m 4,5 km/h (1 Bft) S-SW 202 0 min 0,0 UV-I 6,3 C 8,2 C 5,8 km/h (2 Bft)
02.06.2013 11:45 7,5 C 20,4 C 8,3 C 8,2 C 8,2 C 0,7 C 93 % 92 % 18 % 1013,6 hPa 0,0 l/m 4,3 km/h (1 Bft) S 180 0 min 0,0 UV-I 6,4 C 8,2 C 4,2 km/h (1 Bft)
02.06.2013 11:50 7,4 C 20,4 C 8,3 C 8,4 C 8,4 C 1,0 C 93 % 92 % 26 % 1013,6 hPa 0,0 l/m 3,2 km/h (1 Bft) W-NW 292 0 min 0,0 UV-I 6,3 C 8,4 C 4,2 km/h (1 Bft)
02.06.2013 11:55 7,4 C 20,4 C 8,3 C 8,4 C 8,4 C 1,0 C 93 % 92 % 26 % 1014,7 hPa 0,0 l/m 3,1 km/h (1 Bft) SW 225 0 min 0,0 UV-I 6,3 C 8,4 C 3,7 km/h (1 Bft)
02.06.2013 12:00 7,4 C 20,4 C 8,4 C 8,4 C 8,4 C 1,0 C 93 % 93 % 26 % 1014,7 hPa 0,0 l/m 2,6 km/h (1 Bft) S-SW 202 0 min 0,0 UV-I 6,3 C 8,4 C 4,5 km/h (1 Bft)
02.06.2013 12:05 7,5 C 20,4 C 8,4 C 8,4 C 8,4 C 0,9 C 93 % 93 % 24 % 1014,7 hPa 0,0 l/m 2,7 km/h (1 Bft) SO 135 0 min 0,0 UV-I 6,4 C 8,4 C 2,1 km/h (1 Bft)
02.06.2013 12:10 7,5 C 20,4 C 8,4 C 8,5 C 8,5 C 1,0 C 93 % 93 % 26 % 1014,7 hPa 0,0 l/m 3,2 km/h (1 Bft) SW 225 0 min 0,0 UV-I 6,4 C 8,5 C 4,2 km/h (1 Bft)
02.06.2013 12:15 7,5 C 20,4 C 8,4 C 8,6 C 8,6 C 1,1 C 93 % 93 % 29 % 1014,8 hPa 0,0 l/m 3,1 km/h (1 Bft) O-NO 67 0 min 0,0 UV-I 6,4 C 8,6 C 4,5 km/h (1 Bft)
02.06.2013 12:20 7,6 C 20,4 C 8,4 C 8,6 C 8,6 C 1,0 C 93 % 93 % 26 % 1014,8 hPa 0,0 l/m 2,6 km/h (1 Bft) S 180 0 min 0,0 UV-I 6,5 C 8,6 C 4,5 km/h (1 Bft)
02.06.2013 12:25 7,5 C 20,4 C 8,5 C 8,6 C 8,6 C 1,1 C 93 % 93 % 29 % 1014,8 hPa 0,7 l/m 3,4 km/h (1 Bft) SW 225 0 min 0,0 UV-I 6,4 C 8,6 C 4,5 km/h (1 Bft)
02.06.2013 12:30 7,6 C 20,3 C 8,5 C 8,5 C 8,5 C 0,9 C 93 % 93 % 24 % 1014,8 hPa 0,0 l/m 4,0 km/h (1 Bft) SW 225 0 min 0,0 UV-I 6,5 C 8,5 C 3,7 km/h (1 Bft)
02.06.2013 12:35 7,5 C 20,3 C 8,5 C 8,6 C 8,6 C 1,1 C 93 % 93 % 29 % 1015,4 hPa 0,7 l/m 3,5 km/h (1 Bft) S 180 0 min 0,0 UV-I 6,4 C 8,6 C 4,3 km/h (1 Bft)
02.06.2013 12:41 7,5 C 20,3 C 8,4 C 8,6 C 8,6 C 1,1 C 93 % 93 % 29 % 1015,4 hPa 0,7 l/m 3,4 km/h (1 Bft) N 0 0 min 0,0 UV-I 6,4 C 8,6 C 6,0 km/h (2 Bft)
02.06.2013 13:00 7,6 C 20,3 C 8,5 C 8,6 C 8,6 C 1,0 C 93 % 93 % 26 % 1015,1 hPa 0,7 l/m 1,8 km/h (1 Bft) SW 225 0 min 0,0 UV-I 6,5 C 8,6 C 4,0 km/h (1 Bft)
02.06.2013 13:05 7,6 C 20,3 C 8,5 C 8,6 C 8,6 C 1,0 C 93 % 93 % 26 % 1015,1 hPa 0,0 l/m 1,6 km/h (1 Bft) W 270 0 min 0,0 UV-I 6,5 C 8,6 C 2,7 km/h (1 Bft)
02.06.2013 13:10 7,6 C 20,3 C 8,6 C 8,7 C 8,7 C 1,1 C 93 % 93 % 29 % 1015,1 hPa 0,7 l/m 1,9 km/h (1 Bft) SW 225 0 min 0,0 UV-I 6,5 C 8,7 C 5,0 km/h (1 Bft)
02.06.2013 13:15 7,5 C 20,3 C 8,5 C 8,7 C 8,7 C 1,2 C 93 % 93 % 32 % 1015,9 hPa 0,0 l/m 2,9 km/h (1 Bft) S 180 0 min 0,0 UV-I 6,4 C 8,7 C 3,5 km/h (1 Bft)
02.06.2013 13:20 7,5 C 20,3 C 8,5 C 8,7 C 8,7 C 1,2 C 93 % 93 % 32 % 1015,9 hPa 0,7 l/m 3,5 km/h (1 Bft) W-SW 247 0 min 0,0 UV-I 6,4 C 8,7 C 3,7 km/h (1 Bft)
02.06.2013 13:25 7,6 C 20,3 C 8,5 C 8,7 C 8,7 C 1,1 C 93 % 93 % 29 % 1015,9 hPa 0,7 l/m 3,2 km/h (1 Bft) W-SW 247 0 min 0,0 UV-I 6,5 C 8,7 C 6,4 km/h (2 Bft)
02.06.2013 13:30 7,6 C 20,3 C 8,5 C 8,8 C 8,8 C 1,2 C 93 % 93 % 32 % 1015,9 hPa 0,0 l/m 3,2 km/h (1 Bft) S-SO 157 0 min 0,0 UV-I 6,5 C 8,8 C 4,5 km/h (1 Bft)
02.06.2013 13:35 7,6 C 20,3 C 8,6 C 8,7 C 8,7 C 1,1 C 93 % 93 % 29 % 1015,7 hPa 0,7 l/m 3,9 km/h (1 Bft) S-SO 157 0 min 0,0 UV-I 6,5 C 8,7 C 5,0 km/h (1 Bft)
02.06.2013 13:40 7,6 C 20,3 C 8,5 C 8,6 C 8,6 C 1,0 C 93 % 93 % 26 % 1015,7 hPa 0,0 l/m 4,2 km/h (1 Bft) W 270 0 min 0,0 UV-I 6,5 C 8,6 C 4,8 km/h (1 Bft)
02.06.2013 13:45 7,7 C 20,3 C 8,6 C 8,5 C 8,5 C 0,8 C 93 % 93 % 21 % 1015,7 hPa 0,0 l/m 4,3 km/h (1 Bft) SW 225 0 min 0,0 UV-I 6,6 C 8,5 C 5,6 km/h (1 Bft)
02.06.2013 13:50 7,6 C 20,3 C 8,7 C 8,7 C 8,7 C 1,1 C 93 % 93 % 29 % 1015,7 hPa 0,7 l/m 3,9 km/h (1 Bft) S 180 0 min 0,0 UV-I 6,5 C 8,7 C 5,1 km/h (1 Bft)
02.06.2013 13:55 7,6 C 20,3 C 8,7 C 8,8 C 8,8 C 1,2 C 93 % 93 % 32 % 1015,8 hPa 0,0 l/m 3,9 km/h (1 Bft) W-SW 247 0 min 0,0 UV-I 6,5 C 8,8 C 4,2 km/h (1 Bft)
02.06.2013 14:00 7,7 C 20,2 C 8,6 C 8,8 C 8,8 C 1,1 C 93 % 93 % 29 % 1015,8 hPa 0,0 l/m 3,5 km/h (1 Bft) NW 315 0 min 0,0 UV-I 6,6 C 8,8 C 4,7 km/h (1 Bft)
02.06.2013 14:05 7,7 C 20,2 C 8,6 C 8,8 C 8,8 C 1,1 C 93 % 93 % 29 % 1015,8 hPa 0,7 l/m 3,7 km/h (1 Bft) SW 225 0 min 0,0 UV-I 6,6 C 8,8 C 4,5 km/h (1 Bft)
02.06.2013 14:10 7,7 C 20,2 C 8,7 C 8,8 C 8,8 C 1,1 C 93 % 93 % 29 % 1015,8 hPa 0,0 l/m 4,0 km/h (1 Bft) S 180 0 min 0,0 UV-I 6,6 C 8,8 C 3,2 km/h (1 Bft)
02.06.2013 14:15 7,7 C 20,2 C 8,7 C 9,0 C 9,0 C 1,3 C 93 % 93 % 34 % 1015,4 hPa 0,7 l/m 3,7 km/h (1 Bft) NW 315 0 min 0,0 UV-I 6,6 C 9,0 C 2,9 km/h (1 Bft)
02.06.2013 14:20 7,8 C 20,2 C 8,7 C 9,0 C 9,0 C 1,2 C 93 % 93 % 32 % 1015,4 hPa 0,0 l/m 3,7 km/h (1 Bft) S 180 0 min 0,0 UV-I 6,7 C 9,0 C 8,2 km/h (2 Bft)
02.06.2013 14:25 7,8 C 20,2 C 8,8 C 8,8 C 8,8 C 1,0 C 93 % 92 % 26 % 1015,4 hPa 0,7 l/m 4,3 km/h (1 Bft) SW 225 0 min 0,0 UV-I 6,7 C 8,8 C 10,6 km/h (2 Bft)
02.06.2013 14:30 7,9 C 20,2 C 8,8 C 8,7 C 8,7 C 0,8 C 93 % 93 % 21 % 1015,4 hPa 0,0 l/m 4,8 km/h (1 Bft) SO 135 0 min 0,0 UV-I 6,8 C 8,3 C 9,3 km/h (2 Bft)
02.06.2013 14:35 7,9 C 20,2 C 8,8 C 8,7 C 8,7 C 0,8 C 93 % 92 % 21 % 1015,9 hPa 0,0 l/m 4,8 km/h (1 Bft) W-SW 247 0 min 0,0 UV-I 6,8 C 8,3 C 4,5 km/h (1 Bft)
02.06.2013 14:40 7,9 C 20,2 C 8,8 C 8,8 C 8,8 C 0,9 C 93 % 92 % 24 % 1015,9 hPa 0,0 l/m 4,5 km/h (1 Bft) S-SW 202 0 min 0,0 UV-I 6,8 C 8,8 C 3,4 km/h (1 Bft)
02.06.2013 14:45 7,9 C 20,2 C 8,8 C 8,7 C 8,7 C 0,8 C 93 % 93 % 21 % 1015,9 hPa 0,0 l/m 4,7 km/h (1 Bft) S 180 0 min 0,0 UV-I 6,8 C 8,4 C 6,0 km/h (2 Bft)
02.06.2013 14:50 7,8 C 20,2 C 8,8 C 8,8 C 8,8 C 1,0 C 93 % 93 % 26 % 1015,9 hPa 0,7 l/m 4,3 km/h (1 Bft) S 180 0 min 0,0 UV-I 6,7 C 8,8 C 5,3 km/h (1 Bft)
02.06.2013 14:55 7,8 C 20,2 C 8,8 C 8,8 C 8,8 C 1,0 C 93 % 93 % 26 % 1016,0 hPa 0,0 l/m 4,3 km/h (1 Bft) S-SO 157 0 min 0,0 UV-I 6,7 C 8,8 C 3,5 km/h (1 Bft)
02.06.2013 15:00 7,9 C 20,2 C 8,8 C 8,7 C 8,7 C 0,8 C 93 % 92 % 21 % 1016,0 hPa 0,0 l/m 5,1 km/h (1 Bft) W-SW 247 0 min 0,0 UV-I 6,8 C 8,2 C 4,7 km/h (1 Bft)
02.06.2013 15:05 8,0 C 20,2 C 8,9 C 8,9 C 8,9 C 0,9 C 93 % 92 % 24 % 1016,0 hPa 0,0 l/m 4,3 km/h (1 Bft) S 180 0 min 0,0 UV-I 6,9 C 8,9 C 4,7 km/h (1 Bft)
02.06.2013 15:10 8,0 C 20,2 C 8,9 C 8,8 C 8,8 C 0,8 C 93 % 93 % 21 % 1016,0 hPa 0,0 l/m 4,8 km/h (1 Bft) W-SW 247 0 min 0,0 UV-I 6,9 C 8,5 C 4,0 km/h (1 Bft)
02.06.2013 15:15 8,1 C 20,2 C 8,9 C 8,7 C 8,7 C 0,6 C 93 % 93 % 16 % 1016,2 hPa 0,0 l/m 5,0 km/h (1 Bft) W-SW 247 0 min 0,0 UV-I 7,0 C 8,3 C 3,7 km/h (1 Bft)
02.06.2013 15:20 8,0 C 20,2 C 8,9 C 9,2 C 9,2 C 1,2 C 93 % 92 % 32 % 1016,2 hPa 0,0 l/m 3,9 km/h (1 Bft) S-SW 202 0 min 0,0 UV-I 6,9 C 9,2 C 4,5 km/h (1 Bft)
02.06.2013 15:25 8,0 C 20,2 C 9,0 C 9,2 C 9,2 C 1,2 C 93 % 92 % 32 % 1016,2 hPa 0,0 l/m 3,9 km/h (1 Bft) S 180 0 min 0,0 UV-I 6,9 C 9,2 C 12,2 km/h (2 Bft)
02.06.2013 15:30 8,0 C 20,2 C 8,9 C 8,9 C 8,9 C 0,9 C 93 % 92 % 24 % 1016,2 hPa 0,7 l/m 4,8 km/h (1 Bft) SW 225 0 min 0,0 UV-I 6,9 C 8,6 C 10,5 km/h (2 Bft)
02.06.2013 15:35 8,1 C 20,2 C 9,0 C 8,8 C 8,8 C 0,7 C 93 % 92 % 18 % 1016,1 hPa 0,0 l/m 5,1 km/h (1 Bft) NW 315 0 min 0,0 UV-I 7,0 C 8,4 C 5,8 km/h (2 Bft)
02.06.2013 15:40 8,1 C 20,2 C 9,0 C 8,9 C 8,9 C 0,8 C 93 % 92 % 21 % 1016,1 hPa 0,0 l/m 4,7 km/h (1 Bft) S 180 0 min 0,0 UV-I 7,0 C 8,6 C 2,6 km/h (1 Bft)
02.06.2013 15:45 8,3 C 20,2 C 9,0 C 9,2 C 9,2 C 0,9 C 93 % 92 % 24 % 1016,1 hPa 0,0 l/m 4,3 km/h (1 Bft) W-NW 292 0 min 0,0 UV-I 7,2 C 9,2 C 5,3 km/h (1 Bft)
02.06.2013 15:50 8,3 C 20,1 C 9,1 C 9,1 C 9,1 C 0,8 C 93 % 92 % 21 % 1016,1 hPa 0,0 l/m 4,8 km/h (1 Bft) S-SW 202 0 min 0,0 UV-I 7,2 C 8,8 C 9,7 km/h (2 Bft)
02.06.2013 15:55 8,3 C 20,1 C 9,1 C 8,9 C 8,9 C 0,6 C 93 % 92 % 16 % 1016,3 hPa 0,0 l/m 5,3 km/h (1 Bft) W 270 0 min 0,0 UV-I 7,2 C 8,4 C 9,3 km/h (2 Bft)
02.06.2013 16:00 8,3 C 20,1 C 9,1 C 8,8 C 8,8 C 0,5 C 93 % 92 % 13 % 1016,3 hPa 0,7 l/m 5,6 km/h (1 Bft) S 180 0 min 0,0 UV-I 7,2 C 8,2 C 6,4 km/h (2 Bft)
02.06.2013 16:05 8,3 C 20,1 C 9,1 C 8,9 C 8,9 C 0,6 C 93 % 92 % 16 % 1016,3 hPa 0,0 l/m 5,3 km/h (1 Bft) W-SW 247 0 min 0,0 UV-I 7,2 C 8,4 C 5,0 km/h (1 Bft)
02.06.2013 16:10 8,3 C 20,1 C 9,2 C 9,2 C 9,2 C 0,9 C 93 % 92 % 24 % 1016,3 hPa 0,0 l/m 4,5 km/h (1 Bft) NO 45 0 min 0,0 UV-I 7,2 C 9,2 C 3,7 km/h (1 Bft)
02.06.2013 16:15 8,3 C 20,1 C 9,1 C 9,3 C 9,3 C 1,0 C 93 % 92 % 26 % 1015,7 hPa 0,0 l/m 4,3 km/h (1 Bft) S-SW 202 0 min 0,0 UV-I 7,2 C 9,3 C 3,7 km/h (1 Bft)
02.06.2013 16:20 8,4 C 20,1 C 9,1 C 9,1 C 9,1 C 0,7 C 93 % 92 % 18 % 1015,7 hPa 0,0 l/m 5,0 km/h (1 Bft) SW 225 0 min 0,0 UV-I 7,3 C 8,7 C 12,7 km/h (3 Bft)
02.06.2013 16:25 8,4 C 20,1 C 9,3 C 8,8 C 8,8 C 0,4 C 93 % 92 % 11 % 1015,7 hPa 0,0 l/m 5,8 km/h (2 Bft) S-SW 202 0 min 0,0 UV-I 7,3 C 8,1 C 7,9 km/h (2 Bft)
02.06.2013 16:30 8,5 C 20,1 C 9,2 C 8,8 C 8,8 C 0,3 C 93 % 92 % 8 % 1015,7 hPa 0,0 l/m 6,1 km/h (2 Bft) W-SW 247 0 min 0,0 UV-I 7,4 C 8,1 C 2,4 km/h (1 Bft)
02.06.2013 16:35 8,4 C 20,1 C 9,2 C 9,3 C 9,3 C 0,9 C 93 % 92 % 24 % 1015,9 hPa 0,7 l/m 4,8 km/h (1 Bft) W-SW 247 0 min 0,0 UV-I 7,3 C 9,0 C 4,2 km/h (1 Bft)
02.06.2013 16:40 8,4 C 20,1 C 9,2 C 9,6 C 9,6 C 1,2 C 93 % 92 % 32 % 1015,9 hPa 0,0 l/m 4,0 km/h (1 Bft) S 180 0 min 0,0 UV-I 7,3 C 9,6 C 5,5 km/h (1 Bft)
02.06.2013 16:45 8,5 C 20,1 C 9,2 C 9,6 C 9,6 C 1,1 C 93 % 92 % 29 % 1015,9 hPa 0,0 l/m 3,9 km/h (1 Bft) SW 225 0 min 0,0 UV-I 7,4 C 9,6 C 6,4 km/h (2 Bft)
02.06.2013 16:50 8,5 C 20,1 C 9,2 C 9,6 C 9,6 C 1,1 C 93 % 92 % 29 % 1015,9 hPa 0,0 l/m 3,4 km/h (1 Bft) W-SW 247 0 min 0,0 UV-I 7,4 C 9,6 C 3,2 km/h (1 Bft)
02.06.2013 16:55 8,5 C 20,1 C 9,3 C 9,6 C 9,6 C 1,1 C 93 % 92 % 29 % 1016,4 hPa 0,0 l/m 3,4 km/h (1 Bft) W 270 0 min 0,0 UV-I 7,4 C 9,6 C 7,7 km/h (2 Bft)
02.06.2013 17:00 8,5 C 20,1 C 9,3 C 9,7 C 9,7 C 1,2 C 93 % 92 % 32 % 1016,4 hPa 0,0 l/m 2,9 km/h (1 Bft) W-SW 247 0 min 0,0 UV-I 7,4 C 9,7 C 3,5 km/h (1 Bft)
02.06.2013 17:05 8,6 C 20,1 C 9,3 C 9,7 C 9,7 C 1,1 C 93 % 92 % 29 % 1016,4 hPa 0,0 l/m 3,1 km/h (1 Bft) W-SW 247 0 min 0,0 UV-I 7,5 C 9,7 C 2,7 km/h (1 Bft)
02.06.2013 17:10 8,7 C 20,1 C 9,4 C 9,7 C 9,7 C 1,0 C 93 % 92 % 26 % 1016,4 hPa 0,7 l/m 2,7 km/h (1 Bft) S-SW 202 0 min 0,0 UV-I 7,6 C 9,7 C 3,7 km/h (1 Bft)
02.06.2013 17:15 8,6 C 20,1 C 9,4 C 9,7 C 9,7 C 1,1 C 93 % 92 % 29 % 1016,6 hPa 0,7 l/m 2,3 km/h (1 Bft) W-SW 247 0 min 0,0 UV-I 7,5 C 9,7 C 5,0 km/h (1 Bft)
02.06.2013 17:20 8,7 C 20,1 C 9,5 C 9,7 C 9,7 C 1,0 C 93 % 92 % 26 % 1016,6 hPa 0,0 l/m 1,9 km/h (1 Bft) SW 225 0 min 0,0 UV-I 7,6 C 9,7 C 2,6 km/h (1 Bft)
02.06.2013 17:25 8,7 C 20,0 C 9,4 C 9,7 C 9,7 C 1,0 C 93 % 92 % 26 % 1016,6 hPa 0,7 l/m 1,8 km/h (1 Bft) W-SW 247 0 min 0,0 UV-I 7,6 C 9,7 C 1,9 km/h (1 Bft)
02.06.2013 17:30 8,7 C 20,0 C 9,4 C 9,8 C 9,8 C 1,1 C 93 % 92 % 29 % 1016,6 hPa 0,0 l/m 1,3 km/h (1 Bft) W-SW 247 0 min 0,0 UV-I 7,6 C 9,8 C 0,0 km/h (0 Bft)
02.06.2013 17:35 8,7 C 20,0 C 9,5 C 9,8 C 9,8 C 1,1 C 93 % 92 % 29 % 1016,7 hPa 0,0 l/m 1,4 km/h (1 Bft) SW 225 0 min 0,0 UV-I 7,6 C 9,8 C 0,0 km/h (0 Bft)
02.06.2013 17:40 8,8 C 20,0 C 9,5 C 9,9 C 9,9 C 1,1 C 93 % 92 % 29 % 1016,7 hPa 0,0 l/m 1,3 km/h (1 Bft) SO 135 0 min 0,0 UV-I 7,7 C 9,9 C 2,9 km/h (1 Bft)
02.06.2013 17:45 8,8 C 20,0 C 9,5 C 9,9 C 9,9 C 1,1 C 93 % 92 % 29 % 1016,7 hPa 0,7 l/m 1,0 km/h (0 Bft) S-SW 202 0 min 0,0 UV-I 7,7 C 9,9 C 0,0 km/h (0 Bft)
02.06.2013 17:50 8,8 C 20,0 C 9,6 C 10,0 C 10,0 C 1,2 C 93 % 92 % 32 % 1016,7 hPa 0,0 l/m 0,5 km/h (0 Bft) SW 225 0 min 0,0 UV-I 7,7 C 10,0 C 0,0 km/h (0 Bft)
02.06.2013 17:55 8,9 C 20,0 C 9,5 C 10,0 C 10,0 C 1,1 C 93 % 92 % 29 % 1016,8 hPa 0,7 l/m 0,5 km/h (0 Bft) W-SW 247 0 min 0,0 UV-I 7,8 C 10,0 C 0,0 km/h (0 Bft)
02.06.2013 18:00 8,9 C 20,0 C 9,7 C 10,0 C 10,0 C 1,1 C 93 % 93 % 29 % 1016,8 hPa 0,0 l/m 1,3 km/h (1 Bft) SW 225 0 min 0,0 UV-I 7,8 C 10,0 C 2,7 km/h (1 Bft)
02.06.2013 18:05 8,9 C 20,0 C 9,6 C 10,0 C 10,0 C 1,1 C 93 % 92 % 29 % 1016,8 hPa 0,7 l/m 1,3 km/h (1 Bft) S 180 0 min 0,0 UV-I 7,8 C 10,0 C 2,9 km/h (1 Bft)
02.06.2013 18:10 8,9 C 20,0 C 9,6 C 10,0 C 10,0 C 1,1 C 93 % 92 % 29 % 1016,8 hPa 0,7 l/m 1,3 km/h (1 Bft) N-NO 22 0 min 0,0 UV-I 7,8 C 10,0 C 0,0 km/h (0 Bft)
02.06.2013 18:15 8,9 C 20,0 C 9,6 C 10,0 C 10,0 C 1,1 C 93 % 92 % 29 % 1016,6 hPa 0,0 l/m 1,0 km/h (0 Bft) SW 225 0 min 0,0 UV-I 7,8 C 10,0 C 0,0 km/h (0 Bft)
02.06.2013 18:20 9,0 C 20,0 C 9,6 C 10,0 C 10,0 C 1,0 C 93 % 92 % 26 % 1016,6 hPa 0,7 l/m 1,0 km/h (0 Bft) W-SW 247 0 min 0,0 UV-I 7,9 C 10,0 C 2,6 km/h (1 Bft)
02.06.2013 18:25 9,0 C 20,0 C 9,6 C 10,0 C 10,0 C 1,0 C 93 % 92 % 26 % 1016,6 hPa 0,0 l/m 1,1 km/h (1 Bft) SW 225 0 min 0,0 UV-I 7,9 C 10,0 C 0,0 km/h (0 Bft)
02.06.2013 18:30 9,1 C 20,0 C 9,7 C 10,0 C 10,0 C 0,9 C 93 % 93 % 24 % 1016,6 hPa 0,7 l/m 1,3 km/h (1 Bft) SW 225 0 min 0,0 UV-I 8,0 C 10,0 C 4,2 km/h (1 Bft)
02.06.2013 18:35 9,1 C 20,0 C 9,7 C 10,1 C 10,1 C 1,0 C 93 % 93 % 26 % 1017,2 hPa 0,0 l/m 1,0 km/h (0 Bft) W 270 0 min 0,0 UV-I 8,0 C 10,1 C 2,3 km/h (1 Bft)
02.06.2013 18:41 9,1 C 20,0 C 9,7 C 10,0 C 10,0 C 0,9 C 93 % 93 % 24 % 1017,2 hPa 0,7 l/m 1,8 km/h (1 Bft) N 0 0 min 0,0 UV-I 8,0 C 10,0 C 0,0 km/h (0 Bft)
02.06.2013 19:00 9,1 C 20,0 C 9,9 C 10,1 C 10,1 C 1,0 C 93 % 93 % 26 % 1017,4 hPa 0,7 l/m 1,0 km/h (0 Bft) S-SW 202 0 min 0,0 UV-I 8,0 C 10,1 C 2,9 km/h (1 Bft)
02.06.2013 19:05 9,1 C 20,0 C 9,9 C 10,1 C 10,1 C 1,0 C 93 % 93 % 26 % 1017,4 hPa 0,0 l/m 1,3 km/h (1 Bft) S 180 0 min 0,0 UV-I 8,0 C 10,1 C 2,4 km/h (1 Bft)
02.06.2013 19:10 9,2 C 20,0 C 9,8 C 10,1 C 10,1 C 0,9 C 93 % 93 % 24 % 1017,4 hPa 0,0 l/m 1,3 km/h (1 Bft) S-SW 202 0 min 0,0 UV-I 8,1 C 10,1 C 3,1 km/h (1 Bft)
02.06.2013 19:15 9,2 C 20,0 C 9,8 C 10,1 C 10,1 C 0,9 C 93 % 93 % 24 % 1017,4 hPa 0,7 l/m 1,3 km/h (1 Bft) W-SW 247 0 min 0,0 UV-I 8,1 C 10,1 C 2,1 km/h (1 Bft)
02.06.2013 19:20 9,1 C 20,0 C 9,8 C 10,1 C 10,1 C 1,0 C 93 % 93 % 26 % 1017,4 hPa 0,0 l/m 1,9 km/h (1 Bft) SW 225 0 min 0,0 UV-I 8,0 C 10,1 C 2,4 km/h (1 Bft)
02.06.2013 19:25 9,2 C 20,0 C 9,9 C 10,1 C 10,1 C 0,9 C 93 % 93 % 24 % 1017,4 hPa 0,7 l/m 2,1 km/h (1 Bft) SW 225 0 min 0,0 UV-I 8,1 C 10,1 C 2,1 km/h (1 Bft)
02.06.2013 19:30 9,2 C 20,0 C 9,9 C 10,1 C 10,1 C 0,9 C 93 % 93 % 24 % 1017,4 hPa 0,0 l/m 2,3 km/h (1 Bft) W 270 0 min 0,0 UV-I 8,1 C 10,1 C 5,0 km/h (1 Bft)
02.06.2013 19:35 9,2 C 20,0 C 9,9 C 10,1 C 10,1 C 0,9 C 93 % 93 % 24 % 1017,1 hPa 0,7 l/m 2,3 km/h (1 Bft) SW 225 0 min 0,0 UV-I 8,1 C 10,1 C 2,6 km/h (1 Bft)
02.06.2013 19:40 9,2 C 20,0 C 9,9 C 10,1 C 10,1 C 0,9 C 93 % 93 % 24 % 1017,1 hPa 0,0 l/m 2,1 km/h (1 Bft) SW 225 0 min 0,0 UV-I 8,1 C 10,1 C 2,4 km/h (1 Bft)
02.06.2013 19:45 9,2 C 20,0 C 9,8 C 10,0 C 10,0 C 0,8 C 93 % 93 % 21 % 1017,1 hPa 0,7 l/m 1,8 km/h (1 Bft) S-SW 202 0 min 0,0 UV-I 8,1 C 10,0 C 2,3 km/h (1 Bft)
02.06.2013 19:50 9,2 C 20,0 C 9,9 C 10,0 C 10,0 C 0,8 C 93 % 93 % 21 % 1017,1 hPa 0,0 l/m 1,8 km/h (1 Bft) W-SW 247 0 min 0,0 UV-I 8,1 C 10,0 C 0,0 km/h (0 Bft)
02.06.2013 19:55 9,2 C 20,0 C 9,9 C 10,0 C 10,0 C 0,8 C 93 % 93 % 21 % 1017,7 hPa 0,0 l/m 1,8 km/h (1 Bft) W 270 0 min 0,0 UV-I 8,1 C 10,0 C 3,9 km/h (1 Bft)
02.06.2013 20:00 9,2 C 20,0 C 9,9 C 10,0 C 10,0 C 0,8 C 93 % 93 % 21 % 1017,7 hPa 0,0 l/m 1,1 km/h (1 Bft) SW 225 0 min 0,0 UV-I 8,1 C 10,0 C 2,9 km/h (1 Bft)
02.06.2013 20:05 9,2 C 20,0 C 9,9 C 10,0 C 10,0 C 0,8 C 93 % 93 % 21 % 1017,7 hPa 0,0 l/m 1,8 km/h (1 Bft) S 180 0 min 0,0 UV-I 8,1 C 10,0 C 4,2 km/h (1 Bft)
02.06.2013 20:10 9,2 C 20,0 C 9,9 C 10,1 C 10,1 C 0,9 C 93 % 93 % 24 % 1017,7 hPa 0,7 l/m 2,1 km/h (1 Bft) W-SW 247 0 min 0,0 UV-I 8,1 C 10,1 C 1,8 km/h (1 Bft)
02.06.2013 20:15 9,2 C 20,0 C 9,9 C 10,0 C 10,0 C 0,8 C 93 % 93 % 21 % 1018,1 hPa 0,0 l/m 1,8 km/h (1 Bft) W-SW 247 0 min 0,0 UV-I 8,1 C 10,0 C 4,0 km/h (1 Bft)
02.06.2013 20:20 9,2 C 20,0 C 9,9 C 10,0 C 10,0 C 0,8 C 93 % 93 % 21 % 1018,1 hPa 0,0 l/m 1,6 km/h (1 Bft) SW 225 0 min 0,0 UV-I 8,1 C 10,0 C 2,4 km/h (1 Bft)
02.06.2013 20:25 9,1 C 20,0 C 9,9 C 10,0 C 10,0 C 0,9 C 93 % 93 % 24 % 1018,1 hPa 0,7 l/m 1,3 km/h (1 Bft) SW 225 0 min 0,0 UV-I 8,0 C 10,0 C 0,0 km/h (0 Bft)
02.06.2013 20:30 9,2 C 20,0 C 9,9 C 10,0 C 10,0 C 0,8 C 93 % 93 % 21 % 1018,1 hPa 0,0 l/m 0,6 km/h (0 Bft) W 270 0 min 0,0 UV-I 8,1 C 10,0 C 0,0 km/h (0 Bft)
02.06.2013 20:35 9,1 C 20,0 C 9,9 C 10,0 C 10,0 C 0,9 C 93 % 93 % 24 % 1019,0 hPa 0,0 l/m 0,6 km/h (0 Bft) W 270 5 min 0,0 UV-I 8,0 C 10,0 C 0,0 km/h (0 Bft)
02.06.2013 20:40 9,1 C 19,9 C 9,9 C 10,0 C 10,0 C 0,9 C 93 % 93 % 24 % 1019,0 hPa 0,0 l/m 0,6 km/h (0 Bft) W-SW 247 5 min 0,0 UV-I 8,0 C 10,0 C 2,1 km/h (1 Bft)
02.06.2013 20:45 9,1 C 19,9 C 9,9 C 10,0 C 10,0 C 0,9 C 93 % 93 % 24 % 1019,0 hPa 0,0 l/m 1,1 km/h (1 Bft) SW 225 5 min 0,0 UV-I 8,0 C 10,0 C 3,5 km/h (1 Bft)
02.06.2013 20:50 9,0 C 19,9 C 9,8 C 10,0 C 10,0 C 1,0 C 93 % 93 % 26 % 1019,0 hPa 0,0 l/m 2,3 km/h (1 Bft) SW 225 5 min 0,0 UV-I 7,9 C 10,0 C 0,0 km/h (0 Bft)
02.06.2013 20:55 9,0 C 19,9 C 9,9 C 10,0 C 10,0 C 1,0 C 93 % 93 % 26 % 1018,2 hPa 0,7 l/m 1,6 km/h (1 Bft) W-SW 247 5 min 0,0 UV-I 7,9 C 10,0 C 2,7 km/h (1 Bft)
02.06.2013 21:00 9,1 C 19,9 C 9,9 C 10,0 C 10,0 C 0,9 C 93 % 93 % 24 % 1018,2 hPa 0,0 l/m 1,3 km/h (1 Bft) W 270 5 min 0,0 UV-I 8,0 C 10,0 C 0,0 km/h (0 Bft)
02.06.2013 21:05 9,0 C 19,9 C 9,9 C 10,0 C 10,0 C 1,0 C 93 % 93 % 0 % 1018,2 hPa 0,0 l/m 1,3 km/h (1 Bft) W-SW 247 0 min 0,0 UV-I 7,9 C 10,0 C 0,0 km/h (0 Bft)
02.06.2013 21:10 9,0 C 19,9 C 9,9 C 9,9 C 9,9 C 0,9 C 93 % 93 % 0 % 1018,2 hPa 0,0 l/m 1,0 km/h (0 Bft) S-SW 202 0 min 0,0 UV-I 7,9 C 9,9 C 6,4 km/h (2 Bft)
02.06.2013 21:15 9,0 C 19,9 C 9,9 C 9,9 C 9,9 C 0,9 C 93 % 93 % 0 % 1018,6 hPa 0,0 l/m 1,8 km/h (1 Bft) W-SW 247 0 min 0,0 UV-I 7,9 C 9,9 C 2,7 km/h (1 Bft)
02.06.2013 21:20 9,1 C 19,9 C 9,8 C 9,9 C 9,9 C 0,8 C 93 % 93 % 0 % 1018,6 hPa 0,0 l/m 2,4 km/h (1 Bft) S-SW 202 0 min 0,0 UV-I 8,0 C 9,9 C 1,8 km/h (1 Bft)
02.06.2013 21:25 9,1 C 19,9 C 9,8 C 9,9 C 9,9 C 0,8 C 93 % 93 % 0 % 1018,6 hPa 0,0 l/m 2,4 km/h (1 Bft) SW 225 0 min 0,0 UV-I 8,0 C 9,9 C 2,4 km/h (1 Bft)
02.06.2013 21:30 9,0 C 19,9 C 9,8 C 9,9 C 9,9 C 0,9 C 93 % 93 % 0 % 1018,6 hPa 0,0 l/m 2,4 km/h (1 Bft) SW 225 0 min 0,0 UV-I 7,9 C 9,9 C 3,1 km/h (1 Bft)
02.06.2013 21:35 9,0 C 19,9 C 9,8 C 9,9 C 9,9 C 0,9 C 93 % 93 % 0 % 1019,1 hPa 0,7 l/m 2,9 km/h (1 Bft) W-SW 247 0 min 0,0 UV-I 7,9 C 9,9 C 4,2 km/h (1 Bft)
02.06.2013 21:40 8,9 C 19,9 C 9,7 C 9,9 C 9,9 C 1,0 C 93 % 93 % 0 % 1019,1 hPa 0,0 l/m 2,7 km/h (1 Bft) W-SW 247 0 min 0,0 UV-I 7,8 C 9,9 C 4,2 km/h (1 Bft)
02.06.2013 21:45 8,9 C 19,9 C 9,7 C 9,9 C 9,9 C 1,0 C 93 % 93 % 0 % 1019,1 hPa 0,0 l/m 2,7 km/h (1 Bft) W-SW 247 0 min 0,0 UV-I 7,8 C 9,9 C 2,7 km/h (1 Bft)
02.06.2013 21:50 8,9 C 19,9 C 9,7 C 9,8 C 9,8 C 0,9 C 93 % 93 % 0 % 1019,1 hPa 0,0 l/m 2,4 km/h (1 Bft) W 270 0 min 0,0 UV-I 7,8 C 9,8 C 1,8 km/h (1 Bft)
02.06.2013 21:55 8,9 C 19,9 C 9,6 C 9,8 C 9,8 C 0,9 C 93 % 92 % 0 % 1019,6 hPa 0,0 l/m 2,6 km/h (1 Bft) W-SW 247 0 min 0,0 UV-I 7,8 C 9,8 C 3,5 km/h (1 Bft)
02.06.2013 22:00 8,9 C 19,9 C 9,6 C 9,8 C 9,8 C 0,9 C 93 % 92 % 0 % 1019,6 hPa 0,0 l/m 3,4 km/h (1 Bft) W-SW 247 0 min 0,0 UV-I 7,8 C 9,8 C 8,0 km/h (2 Bft)
02.06.2013 22:05 8,8 C 19,9 C 9,6 C 9,8 C 9,8 C 1,0 C 93 % 92 % 0 % 1019,6 hPa 0,0 l/m 3,7 km/h (1 Bft) S 180 0 min 0,0 UV-I 7,7 C 9,8 C 4,5 km/h (1 Bft)
02.06.2013 22:10 8,9 C 19,9 C 9,6 C 9,8 C 9,8 C 0,9 C 93 % 92 % 0 % 1019,6 hPa 0,7 l/m 4,0 km/h (1 Bft) W-SW 247 0 min 0,0 UV-I 7,8 C 9,8 C 4,0 km/h (1 Bft)
02.06.2013 22:15 8,8 C 19,9 C 9,6 C 9,8 C 9,8 C 1,0 C 93 % 92 % 0 % 1019,0 hPa 0,0 l/m 4,0 km/h (1 Bft) SW 225 0 min 0,0 UV-I 7,7 C 9,8 C 3,7 km/h (1 Bft)
02.06.2013 22:20 8,8 C 19,9 C 9,7 C 9,8 C 9,8 C 1,0 C 93 % 93 % 0 % 1019,0 hPa 0,0 l/m 3,5 km/h (1 Bft) SW 225 0 min 0,0 UV-I 7,7 C 9,8 C 3,1 km/h (1 Bft)
02.06.2013 22:25 8,8 C 19,9 C 9,6 C 9,7 C 9,7 C 0,9 C 93 % 92 % 0 % 1019,0 hPa 0,0 l/m 3,5 km/h (1 Bft) SW 225 0 min 0,0 UV-I 7,7 C 9,7 C 10,3 km/h (2 Bft)
02.06.2013 22:30 8,9 C 19,9 C 9,6 C 9,7 C 9,7 C 0,8 C 93 % 92 % 0 % 1019,0 hPa 0,0 l/m 3,4 km/h (1 Bft) SW 225 0 min 0,0 UV-I 7,8 C 9,7 C 2,9 km/h (1 Bft)
02.06.2013 22:35 8,8 C 19,9 C 9,6 C 9,7 C 9,7 C 0,9 C 93 % 92 % 0 % 1020,1 hPa 0,0 l/m 3,7 km/h (1 Bft) W-SW 247 0 min 0,0 UV-I 7,7 C 9,7 C 10,6 km/h (2 Bft)
02.06.2013 22:40 8,8 C 19,9 C 9,5 C 9,7 C 9,7 C 0,9 C 93 % 92 % 0 % 1020,1 hPa 0,0 l/m 3,5 km/h (1 Bft) NW 315 0 min 0,0 UV-I 7,7 C 9,7 C 3,7 km/h (1 Bft)
02.06.2013 22:45 8,7 C 19,9 C 9,5 C 9,7 C 9,7 C 1,0 C 93 % 92 % 0 % 1020,1 hPa 0,0 l/m 4,3 km/h (1 Bft) SW 225 0 min 0,0 UV-I 7,6 C 9,7 C 3,7 km/h (1 Bft)
02.06.2013 22:50 8,7 C 19,9 C 9,5 C 9,5 C 9,5 C 0,8 C 93 % 92 % 0 % 1020,1 hPa 0,0 l/m 4,3 km/h (1 Bft) SW 225 0 min 0,0 UV-I 7,6 C 9,5 C 5,8 km/h (2 Bft)
02.06.2013 22:55 8,7 C 19,9 C 9,5 C 9,6 C 9,6 C 0,9 C 93 % 92 % 0 % 1019,4 hPa 0,0 l/m 3,7 km/h (1 Bft) SW 225 0 min 0,0 UV-I 7,6 C 9,6 C 5,5 km/h (1 Bft)
02.06.2013 23:00 8,7 C 19,9 C 9,5 C 9,5 C 9,5 C 0,8 C 93 % 93 % 0 % 1019,4 hPa 0,0 l/m 3,5 km/h (1 Bft) S-SO 157 0 min 0,0 UV-I 7,6 C 9,5 C 4,2 km/h (1 Bft)
02.06.2013 23:05 8,7 C 19,9 C 9,5 C 9,4 C 9,4 C 0,7 C 93 % 92 % 0 % 1019,4 hPa 0,0 l/m 3,5 km/h (1 Bft) W-SW 247 0 min 0,0 UV-I 7,6 C 9,4 C 4,5 km/h (1 Bft)
02.06.2013 23:10 8,5 C 19,9 C 9,4 C 9,4 C 9,4 C 0,9 C 93 % 93 % 0 % 1019,4 hPa 0,0 l/m 3,5 km/h (1 Bft) W 270 0 min 0,0 UV-I 7,4 C 9,4 C 4,5 km/h (1 Bft)
02.06.2013 23:15 8,5 C 19,9 C 9,3 C 9,3 C 9,3 C 0,8 C 93 % 93 % 0 % 1019,4 hPa 0,0 l/m 4,2 km/h (1 Bft) W-NW 292 0 min 0,0 UV-I 7,4 C 9,3 C 2,6 km/h (1 Bft)
02.06.2013 23:20 8,5 C 20,0 C 9,3 C 9,3 C 9,3 C 0,8 C 93 % 93 % 0 % 1019,4 hPa 0,0 l/m 4,3 km/h (1 Bft) S 180 0 min 0,0 UV-I 7,4 C 9,3 C 5,1 km/h (1 Bft)
02.06.2013 23:25 8,4 C 20,0 C 9,2 C 9,3 C 9,3 C 0,9 C 93 % 93 % 0 % 1019,4 hPa 0,0 l/m 4,0 km/h (1 Bft) W-NW 292 0 min 0,0 UV-I 7,3 C 9,3 C 3,1 km/h (1 Bft)
02.06.2013 23:30 8,4 C 20,0 C 9,3 C 8,9 C 8,9 C 0,5 C 93 % 93 % 0 % 1019,4 hPa 0,0 l/m 5,0 km/h (1 Bft) S-SW 202 0 min 0,0 UV-I 7,3 C 8,5 C 5,5 km/h (1 Bft)
02.06.2013 23:35 8,4 C 20,0 C 9,2 C 8,7 C 8,7 C 0,3 C 93 % 93 % 0 % 1019,6 hPa 0,0 l/m 5,6 km/h (1 Bft) W-SW 247 0 min 0,0 UV-I 7,3 C 8,1 C 11,4 km/h (2 Bft)
02.06.2013 23:40 8,3 C 20,0 C 9,1 C 8,6 C 8,6 C 0,3 C 93 % 93 % 0 % 1019,6 hPa 0,0 l/m 5,5 km/h (1 Bft) W-SW 247 0 min 0,0 UV-I 7,2 C 8,0 C 7,9 km/h (2 Bft)
02.06.2013 23:45 8,3 C 20,0 C 9,1 C 8,7 C 8,7 C 0,4 C 93 % 93 % 0 % 1019,6 hPa 0,0 l/m 5,1 km/h (1 Bft) SW 225 0 min 0,0 UV-I 7,2 C 8,2 C 4,0 km/h (1 Bft)
02.06.2013 23:50 8,2 C 20,0 C 9,0 C 8,7 C 8,7 C 0,5 C 93 % 93 % 0 % 1019,6 hPa 0,0 l/m 5,1 km/h (1 Bft) NW 315 0 min 0,0 UV-I 7,1 C 8,2 C 3,9 km/h (1 Bft)
02.06.2013 23:55 8,3 C 20,0 C 9,1 C 8,6 C 8,6 C 0,3 C 93 % 93 % 0 % 1019,6 hPa 0,0 l/m 5,3 km/h (1 Bft) W 270 0 min 0,0 UV-I 7,2 C 8,1 C 9,0 km/h (2 Bft)
_ Min-Zeit 11:20 20:40 11:45 10:50 10:50 03:30 03:30 00:00 00:00 00:00 - 17:50 - - - 00:00 11:20 10:50 02:25
Minimum _ 7,4 C 19,9 C 8,3 C 7,8 C 7,8 C 0,0 C 92 % 92 % 0 % 1008,7 hPa - 0,5 km/h (0 Bft) - - - 0,0 UV-I 6,2 C 7,0 C 0,0 km/h (0 Bft)
_ Max-Zeit 00:00 00:00 00:00 00:15 00:15 14:15 00:00 04:35 14:15 22:35 00:10 00:05 - - 05:15 00:00 00:00 00:15 07:00
Maximum _ 10,9 C 21,5 C 11,5 C 11,5 C 11,5 C 1,3 C 93 % 93 % 34 % 1020,1 hPa 0,7 l/m 7,6 km/h
SW (2 Bft)
- - 5 min 0,0 UV-I 9,8 C 11,5 C 25,7 km/h
NW (4 Bft)
Durchschnitt _ 8,7 C 20,5 C 9,5 C 9,4 C 9,4 C 0,7 C 93 % 92 % 14 % 1014,1 hPa #32,3 l/m 4,0 km/h (1 Bft) W-SW - #45 min. 0,0 UV-I 7,6 C 9,2 C 5,9 km/h (2 Bft)
2013 www.wetterstation-wechselburg.de